Time;durP1;ratioP1;P1;durP2;ratioP2;P2;SDS_P1;SDS_P2;PMS_P1;PMS_P2;Temp;Humidity;BMP_temperature;BMP_pressure;BME280_temperature;BME280_humidity;BME280_pressure;Samples;Min_cycle;Max_cycle;Signal;HPM_P1;HPM_P2
2023/02/06 00:00:19;;;;;;;14.57;5.40;;;-5.80;99.90;;;;;;5070460;28;20036;-76
2023/02/06 00:02:44;;;;;;;12.10;4.35;;;-5.80;99.90;;;;;;5069059;28;20051;-75
2023/02/06 00:05:10;;;;;;;9.88;3.47;;;-5.60;99.90;;;;;;5069105;28;20044;-76
2023/02/06 00:07:36;;;;;;;10.30;4.72;;;-5.60;99.90;;;;;;5069672;28;20496;-74
2023/02/06 00:10:01;;;;;;;16.70;5.25;;;-5.40;99.90;;;;;;5070163;28;20025;-75
2023/02/06 00:12:27;;;;;;;12.10;4.65;;;-5.30;99.90;;;;;;5070227;28;20074;-75
2023/02/06 00:14:53;;;;;;;10.38;4.97;;;-5.40;99.90;;;;;;5070191;28;20563;-75
2023/02/06 00:17:18;;;;;;;12.32;6.00;;;-5.40;99.80;;;;;;5070397;28;20090;-75
2023/02/06 00:19:44;;;;;;;11.57;5.38;;;-5.30;99.80;;;;;;5069411;28;20039;-76
2023/02/06 00:22:12;;;;;;;10.27;3.65;;;-5.30;99.90;;;;;;5069546;28;20047;-76
2023/02/06 00:24:39;;;;;;;13.75;5.40;;;-5.30;99.90;;;;;;5069976;28;20029;-75
2023/02/06 00:27:05;;;;;;;9.50;3.58;;;-5.20;99.90;;;;;;5069033;28;20016;-75
2023/02/06 00:29:31;;;;;;;10.48;3.95;;;-5.00;97.10;;;;;;5070342;28;20052;-75
2023/02/06 00:31:57;;;;;;;9.75;4.30;;;-5.20;97.30;;;;;;5070664;28;20048;-76
2023/02/06 00:34:23;;;;;;;8.10;3.97;;;-5.30;98.20;;;;;;5070855;28;20037;-76
2023/02/06 00:36:50;;;;;;;7.55;3.25;;;-5.30;98.20;;;;;;5070067;28;20493;-75
2023/02/06 00:39:17;;;;;;;11.02;4.72;;;-5.30;98.50;;;;;;5068633;28;20503;-75
2023/02/06 00:41:42;;;;;;;13.93;6.13;;;-5.20;98.90;;;;;;5070087;28;20033;-75
2023/02/06 00:44:08;;;;;;;10.68;4.88;;;-5.20;98.90;;;;;;5068799;28;20032;-75
2023/02/06 00:46:34;;;;;;;9.90;4.00;;;-5.10;98.60;;;;;;5070030;28;20025;-75
2023/02/06 00:49:00;;;;;;;10.20;4.30;;;-5.10;98.40;;;;;;5069781;28;20020;-75
2023/02/06 00:51:26;;;;;;;9.43;3.55;;;-5.00;98.10;;;;;;5069972;28;20099;-75
2023/02/06 00:53:51;;;;;;;10.00;3.65;;;-5.00;96.70;;;;;;5068325;28;20059;-76
2023/02/06 00:56:17;;;;;;;13.73;5.93;;;-5.00;96.70;;;;;;5068688;28;20024;-75
2023/02/06 00:58:43;;;;;;;10.90;4.63;;;-5.00;97.80;;;;;;5069737;28;20037;-75
2023/02/06 01:01:08;;;;;;;21.40;8.48;;;-5.10;98.30;;;;;;5069604;28;20029;-76
2023/02/06 01:03:34;;;;;;;10.50;4.65;;;-4.90;97.30;;;;;;5069877;28;20039;-76
2023/02/06 01:06:00;;;;;;;8.13;3.35;;;-4.60;95.70;;;;;;5068361;28;20485;-76
2023/02/06 01:08:25;;;;;;;9.88;4.07;;;-4.30;92.80;;;;;;5069546;28;20025;-75
2023/02/06 01:10:51;;;;;;;12.32;4.35;;;-4.20;91.60;;;;;;5068930;28;20028;-76
2023/02/06 01:13:17;;;;;;;13.00;3.90;;;-4.20;91.60;;;;;;5070180;28;20503;-75
2023/02/06 01:15:43;;;;;;;9.30;3.40;;;-4.20;91.80;;;;;;5069383;28;20036;-76
2023/02/06 01:18:08;;;;;;;;;;;-4.20;91.80;;;;;;5069809;28;20113;-75
2023/02/06 01:20:34;;;;;;;9.73;3.35;;;-4.20;91.90;;;;;;5068088;28;19925;-76
2023/02/06 01:23:00;;;;;;;9.60;3.50;;;-4.20;92.30;;;;;;5068084;28;20396;-76
2023/02/06 01:25:25;;;;;;;13.13;4.35;;;-4.20;92.40;;;;;;5068241;28;20021;-77
2023/02/06 01:27:51;;;;;;;24.52;7.80;;;-4.30;92.60;;;;;;5069204;28;20028;-76
2023/02/06 01:30:17;;;;;;;15.85;6.10;;;-4.30;94.00;;;;;;5069287;28;20078;-76
2023/02/06 01:32:43;;;;;;;14.07;5.32;;;-4.40;94.80;;;;;;5069497;28;20540;-76
2023/02/06 01:35:10;;;;;;;14.55;5.22;;;-4.50;95.30;;;;;;5067856;28;20501;-76
2023/02/06 01:37:36;;;;;;;10.38;4.00;;;-4.50;95.40;;;;;;5067969;28;20043;-77
2023/02/06 01:40:04;;;;;;;11.70;4.30;;;-4.50;95.30;;;;;;5067988;28;20032;-76
2023/02/06 01:42:36;;;;;;;9.32;3.83;;;-4.50;94.80;;;;;;5069337;28;20025;-76
2023/02/06 01:45:20;;;;;;;10.32;3.65;;;-4.50;95.50;;;;;;5067127;28;20028;-75
2023/02/06 01:47:48;;;;;;;9.57;3.55;;;-4.50;95.20;;;;;;5068021;28;20088;-76
2023/02/06 01:50:14;;;;;;;7.80;3.30;;;-4.60;93.90;;;;;;5069219;28;20051;-75
2023/02/06 01:52:40;;;;;;;8.35;3.47;;;-4.80;94.90;;;;;;5071320;28;20035;-76
2023/02/06 01:55:05;;;;;;;6.43;2.90;;;-5.00;96.60;;;;;;5072834;28;20050;-76
2023/02/06 01:57:33;;;;;;;8.32;3.67;;;-5.00;96.70;;;;;;5072763;28;20108;-75
2023/02/06 02:00:04;;;;;;;7.13;3.00;;;-5.10;97.30;;;;;;5073318;28;20098;-76
2023/02/06 02:02:31;;;;;;;8.23;3.15;;;-5.20;97.60;;;;;;5072953;28;20107;-76
2023/02/06 02:05:00;;;;;;;8.18;3.70;;;-5.10;98.10;;;;;;5071540;28;20094;-75
2023/02/06 02:07:31;;;;;;;10.35;3.38;;;-5.10;98.30;;;;;;5072805;28;20031;-76
2023/02/06 02:09:57;;;;;;;8.35;3.63;;;-5.10;98.80;;;;;;5071300;28;20029;-75
2023/02/06 02:12:23;;;;;;;9.93;3.80;;;-5.20;99.80;;;;;;5072245;28;20052;-75
2023/02/06 02:14:50;;;;;;;8.15;3.40;;;-5.20;99.90;;;;;;5071152;28;20079;-75
2023/02/06 02:17:22;;;;;;;7.47;3.50;;;-5.20;99.20;;;;;;5072378;28;20013;-76
2023/02/06 02:19:47;;;;;;;9.65;3.85;;;-5.10;98.60;;;;;;5070962;28;20025;-76
2023/02/06 02:22:28;;;;;;;10.27;4.03;;;-5.10;98.40;;;;;;5071713;28;20090;-76
2023/02/06 02:25:23;;;;;;;13.65;6.13;;;-5.10;98.80;;;;;;5072747;28;20025;-75
2023/02/06 02:28:09;;;;;;;9.25;3.78;;;-5.00;97.40;;;;;;5071516;28;20048;-76
2023/02/06 02:31:01;;;;;;;9.65;4.45;;;-5.00;96.80;;;;;;5072096;28;20057;-76
2023/02/06 02:33:46;;;;;;;9.05;3.60;;;-5.10;97.60;;;;;;5041238;28;20037;-76
2023/02/06 02:36:19;;;;;;;9.55;3.67;;;-5.20;98.30;;;;;;5071990;28;20546;-76
2023/02/06 02:38:57;;;;;;;9.95;3.40;;;-5.20;98.20;;;;;;5072088;28;20039;-76
2023/02/06 02:41:47;;;;;;;8.45;3.30;;;-5.20;98.70;;;;;;5072038;28;20029;-75
2023/02/06 02:44:36;;;;;;;9.52;4.97;;;-5.20;99.30;;;;;;5071948;28;20111;-75
2023/02/06 02:47:06;;;;;;;10.30;3.67;;;-5.20;99.90;;;;;;5071950;28;20075;-75
2023/02/06 02:49:36;;;;;;;10.10;3.55;;;-5.10;99.60;;;;;;5070259;28;20024;-75
2023/02/06 02:52:02;;;;;;;10.07;3.85;;;-5.10;99.90;;;;;;5071792;28;20046;-75
2023/02/06 02:54:28;;;;;;;12.27;4.00;;;-5.00;98.80;;;;;;5070403;28;20140;-75
2023/02/06 02:57:00;;;;;;;8.63;3.72;;;-4.90;98.00;;;;;;5072692;28;20084;-74
2023/02/06 02:59:40;;;;;;;9.38;3.65;;;-4.90;98.50;;;;;;5072752;28;20024;-75
2023/02/06 03:02:11;;;;;;;10.13;4.07;;;-5.00;99.60;;;;;;5071240;28;20027;-76
2023/02/06 03:04:49;;;;;;;10.77;4.85;;;-5.10;99.80;;;;;;5070022;28;20519;-75
2023/02/06 03:07:46;;;;;;;13.63;4.38;;;-5.10;99.90;;;;;;5071324;28;20082;-76
2023/02/06 03:10:27;;;;;;;6.78;3.15;;;-5.10;99.90;;;;;;5071358;28;20126;-75
2023/02/06 03:12:58;;;;;;;7.28;3.10;;;-5.10;99.90;;;;;;5071410;28;20033;-75
2023/02/06 03:15:34;;;;;;;9.43;4.05;;;-5.20;99.90;;;;;;5069941;28;20546;-76
2023/02/06 03:18:18;;;;;;;8.07;3.50;;;-5.10;99.90;;;;;;5071400;28;20021;-76
2023/02/06 03:20:46;;;;;;;9.52;3.58;;;-5.00;99.90;;;;;;5070859;28;20552;-74
2023/02/06 03:23:26;;;;;;;10.20;3.60;;;-4.80;99.80;;;;;;5071465;28;20021;-74
2023/02/06 03:25:55;;;;;;;12.50;4.43;;;-4.60;98.20;;;;;;5070874;28;20033;-76
2023/02/06 03:28:32;;;;;;;8.52;3.85;;;-4.30;96.60;;;;;;5070093;28;20057;-76
2023/02/06 03:31:00;;;;;;;13.25;4.30;;;-4.30;96.00;;;;;;5070846;28;20085;-76
2023/02/06 03:33:32;;;;;;;9.80;3.95;;;-4.30;95.70;;;;;;5069812;28;20081;-76
2023/02/06 03:35:59;;;;;;;6.55;2.97;;;-4.40;95.80;;;;;;5070771;28;20043;-76
2023/02/06 03:38:26;;;;;;;11.63;4.43;;;-4.40;95.90;;;;;;5070832;28;20028;-74
2023/02/06 03:40:53;;;;;;;12.90;5.47;;;-4.40;96.30;;;;;;5070433;28;20058;-76
2023/02/06 03:43:23;;;;;;;11.48;5.10;;;-4.40;97.10;;;;;;5069442;28;20052;-76
2023/02/06 03:45:53;;;;;;;10.60;4.18;;;-4.50;97.90;;;;;;5069232;28;20021;-76
2023/02/06 03:48:37;;;;;;;9.75;4.40;;;-4.60;98.60;;;;;;5070530;28;20131;-76
2023/02/06 03:51:11;;;;;;;15.18;5.80;;;-4.70;98.90;;;;;;5070446;28;20052;-76
2023/02/06 03:53:37;;;;;;;16.10;6.60;;;-4.70;99.40;;;;;;5070251;28;20094;-75
2023/02/06 03:56:22;;;;;;;12.65;5.43;;;-4.90;99.90;;;;;;5070372;28;20029;-77
2023/02/06 03:58:48;;;;;;;12.35;5.22;;;-4.90;99.90;;;;;;5070375;28;20027;-75
2023/02/06 04:01:14;;;;;;;10.15;4.60;;;-4.80;99.90;;;;;;5070323;28;20032;-76
2023/02/06 04:03:40;;;;;;;13.00;4.75;;;-4.90;99.90;;;;;;5070365;28;20021;-76
2023/02/06 04:06:06;;;;;;;22.08;6.72;;;-4.80;99.90;;;;;;5068989;28;20488;-76
2023/02/06 04:08:31;;;;;;;27.42;6.97;;;-4.70;99.70;;;;;;5070290;28;20020;-75
2023/02/06 04:10:57;;;;;;;30.55;9.32;;;-4.60;99.60;;;;;;5070199;28;20036;-75
2023/02/06 04:13:23;;;;;;;;;;;-4.60;99.40;;;;;;5070702;28;20085;-75
2023/02/06 04:15:48;;;;;;;15.70;6.93;;;-4.60;99.10;;;;;;5069683;28;19912;-75
2023/02/06 04:18:14;;;;;;;;;;;-4.70;99.50;;;;;;5070606;28;20032;-76
2023/02/06 04:20:40;;;;;;;11.40;4.68;;;-4.80;99.90;;;;;;5070094;28;19904;-76
2023/02/06 04:23:06;;;;;;;;;;;-4.80;99.90;;;;;;5070367;28;20032;-76
2023/02/06 04:25:32;;;;;;;15.43;6.43;;;-4.90;99.90;;;;;;5068128;28;19915;-76
2023/02/06 04:27:58;;;;;;;20.23;7.28;;;-4.90;99.90;;;;;;5069935;28;20024;-76
2023/02/06 04:30:23;;;;;;;43.50;19.02;;;-5.00;99.90;;;;;;5068626;28;20496;-75
2023/02/06 04:32:49;;;;;;;39.28;16.00;;;-5.10;99.90;;;;;;5069945;28;20473;-76
2023/02/06 04:35:15;;;;;;;15.65;7.13;;;-5.20;99.90;;;;;;5068468;28;20033;-76
2023/02/06 04:37:41;;;;;;;19.50;7.35;;;-5.30;99.90;;;;;;5068825;28;20028;-76
2023/02/06 04:40:07;;;;;;;16.45;6.57;;;-5.40;99.90;;;;;;5068695;28;20552;-75
2023/02/06 04:42:33;;;;;;;19.27;7.20;;;-5.60;99.90;;;;;;5069866;28;20463;-75
2023/02/06 04:44:58;;;;;;;18.05;7.30;;;-5.60;99.90;;;;;;5070347;28;20029;-76
2023/02/06 04:47:24;;;;;;;26.90;9.55;;;-5.70;99.90;;;;;;5070411;28;20538;-75
2023/02/06 04:49:50;;;;;;;24.17;9.70;;;-5.80;99.90;;;;;;5070734;28;20033;-76
2023/02/06 04:52:15;;;;;;;19.95;8.48;;;-5.80;99.90;;;;;;5071223;28;20067;-76
2023/02/06 04:54:41;;;;;;;22.25;9.55;;;-5.90;99.90;;;;;;5071166;28;20052;-75
2023/02/06 04:57:07;;;;;;;22.95;9.07;;;-5.90;99.90;;;;;;5069717;28;20500;-76
2023/02/06 04:59:32;;;;;;;21.65;9.07;;;-6.00;99.90;;;;;;5070951;28;20047;-75
2023/02/06 05:01:58;;;;;;;19.27;8.25;;;-6.00;99.90;;;;;;5069930;28;20021;-76
2023/02/06 05:04:23;;;;;;;81.47;27.52;;;-6.00;99.90;;;;;;5069763;28;20426;-76
2023/02/06 05:06:49;;;;;;;56.70;17.20;;;-6.00;99.90;;;;;;5071178;28;20397;-76
2023/02/06 05:09:15;;;;;;;43.95;15.90;;;-6.10;99.90;;;;;;5070270;28;20028;-75
2023/02/06 05:11:40;;;;;;;35.38;14.40;;;-6.10;99.90;;;;;;5071362;28;20133;-76
2023/02/06 05:14:06;;;;;;;35.15;13.95;;;-6.10;99.90;;;;;;5070319;28;20506;-76
2023/02/06 05:16:32;;;;;;;30.25;11.85;;;-6.10;99.90;;;;;;5070304;28;20020;-75
2023/02/06 05:18:58;;;;;;;27.63;9.73;;;-6.00;99.90;;;;;;5070058;28;20503;-76
2023/02/06 05:21:24;;;;;;;24.88;10.95;;;-6.00;99.90;;;;;;5070427;28;20032;-76
2023/02/06 05:23:50;;;;;;;19.35;8.10;;;-6.00;99.90;;;;;;5068063;28;20029;-76
2023/02/06 05:26:16;;;;;;;22.10;9.15;;;-6.00;99.90;;;;;;5068296;28;20069;-76
2023/02/06 05:28:42;;;;;;;22.55;10.88;;;-5.90;99.90;;;;;;5073759;28;20032;-76
2023/02/06 05:31:08;;;;;;;20.25;8.27;;;-6.00;99.90;;;;;;5073527;28;20492;-75
2023/02/06 05:33:33;;;;;;;22.08;8.52;;;-6.00;99.90;;;;;;5073368;28;20566;-75
2023/02/06 05:36:04;;;;;;;18.52;8.43;;;-6.00;99.90;;;;;;5072579;28;20060;-75
2023/02/06 05:38:30;;;;;;;23.20;9.50;;;-6.00;99.90;;;;;;5072170;28;20107;-76
2023/02/06 05:40:56;;;;;;;22.25;9.13;;;-6.10;99.90;;;;;;5072497;28;20170;-76
2023/02/06 05:43:22;;;;;;;26.17;10.55;;;-6.10;99.90;;;;;;5073906;28;20024;-76
2023/02/06 05:45:47;;;;;;;24.27;10.05;;;-6.10;99.90;;;;;;5073724;28;20029;-75
2023/02/06 05:48:13;;;;;;;35.97;16.30;;;-6.00;99.90;;;;;;5072932;28;20036;-76
2023/02/06 05:50:38;;;;;;;36.08;11.60;;;-5.80;99.90;;;;;;5071620;28;20051;-76
2023/02/06 05:53:04;;;;;;;34.30;11.95;;;-5.70;99.90;;;;;;5071044;28;20060;-75
2023/02/06 05:55:30;;;;;;;59.90;18.40;;;-5.50;99.90;;;;;;5071442;28;20123;-75
2023/02/06 05:57:55;;;;;;;85.47;20.13;;;-5.40;99.90;;;;;;5072811;28;20032;-76
2023/02/06 06:00:21;;;;;;;84.90;24.77;;;-5.40;99.90;;;;;;5072583;28;20021;-76
2023/02/06 06:02:47;;;;;;;112.07;32.25;;;-5.30;99.90;;;;;;5071735;28;20021;-75
2023/02/06 06:05:12;;;;;;;59.83;21.23;;;-5.30;99.90;;;;;;5071454;28;20036;-74
2023/02/06 06:07:38;;;;;;;39.17;17.10;;;-5.30;99.90;;;;;;5072784;28;20081;-75
2023/02/06 06:10:05;;;;;;;33.80;14.48;;;-5.30;99.90;;;;;;5072571;28;20060;-76
2023/02/06 06:12:31;;;;;;;26.95;11.32;;;-5.30;99.90;;;;;;5072500;28;20028;-76
2023/02/06 06:14:57;;;;;;;31.85;14.55;;;-5.40;99.90;;;;;;5072283;28;20032;-75
2023/02/06 06:17:22;;;;;;;68.07;30.55;;;-5.30;99.90;;;;;;5072490;28;20035;-76
2023/02/06 06:19:48;;;;;;;89.63;36.10;;;-5.30;99.90;;;;;;5070713;28;20111;-75
2023/02/06 06:22:13;;;;;;;72.38;28.90;;;-5.30;99.90;;;;;;5070771;28;20024;-75
2023/02/06 06:24:39;;;;;;;63.35;25.98;;;-5.20;99.90;;;;;;5072064;28;20020;-76
2023/02/06 06:27:07;;;;;;;49.67;22.50;;;-5.20;99.90;;;;;;5072344;28;20032;-76
2023/02/06 06:29:32;;;;;;;23.38;10.25;;;-5.20;99.90;;;;;;5072125;28;20059;-75
2023/02/06 06:31:58;;;;;;;19.13;7.32;;;-5.10;99.90;;;;;;5071039;28;20052;-76
2023/02/06 06:34:26;;;;;;;15.93;6.65;;;-5.20;99.90;;;;;;5072061;28;20400;-76
2023/02/06 06:36:51;;;;;;;16.65;7.07;;;-5.20;99.90;;;;;;5071838;28;20059;-75
2023/02/06 06:39:17;;;;;;;14.70;6.00;;;-5.30;99.90;;;;;;5070326;28;20052;-75
2023/02/06 06:41:43;;;;;;;20.40;9.52;;;-5.30;99.90;;;;;;5070207;28;20497;-76
2023/02/06 06:44:08;;;;;;;26.23;11.05;;;-5.20;99.90;;;;;;5071936;28;20059;-76
2023/02/06 06:46:34;;;;;;;29.02;13.10;;;-5.10;99.90;;;;;;5070423;28;20025;-76
2023/02/06 06:49:00;;;;;;;30.17;13.82;;;-5.00;99.90;;;;;;5071646;28;20024;-76
2023/02/06 06:51:28;;;;;;;24.63;10.90;;;-4.50;99.90;;;;;;5070290;28;20090;-76
2023/02/06 06:53:54;;;;;;;29.88;11.23;;;-4.00;99.90;;;;;;5071367;28;20124;-76
2023/02/06 06:56:20;;;;;;;19.20;8.48;;;-3.30;98.60;;;;;;5071485;28;20132;-78
2023/02/06 06:58:45;;;;;;;;;;;-2.50;94.10;;;;;;5072306;28;20536;-77
2023/02/06 07:01:11;;;;;;;36.17;14.85;;;-1.70;86.90;;;;;;5071221;28;19977;-77
2023/02/06 07:03:37;;;;;;;;;;;-1.10;81.70;;;;;;5071953;28;20435;-76
2023/02/06 07:06:03;;;;;;;30.27;14.38;;;-0.60;77.40;;;;;;5071281;28;19995;-76
2023/02/06 07:08:29;;;;;;;43.22;20.02;;;0.00;77.20;;;;;;5071361;28;20082;-76
2023/02/06 07:10:56;;;;;;;;;;;0.60;74.00;;;;;;5071582;28;20020;-76
2023/02/06 07:13:22;;;;;;;48.00;20.15;;;1.00;66.90;;;;;;5071238;28;19910;-78
2023/02/06 07:15:47;;;;;;;;;;;1.10;65.90;;;;;;5071562;28;20115;-76
2023/02/06 07:18:13;;;;;;;25.90;12.10;;;1.40;65.00;;;;;;5069505;28;20376;-76
2023/02/06 07:20:39;;;;;;;;;;;1.60;63.00;;;;;;5071406;28;20040;-77
2023/02/06 07:23:05;;;;;;;20.25;9.15;;;1.60;62.50;;;;;;5070851;28;20341;-77
2023/02/06 07:25:31;;;;;;;32.50;15.68;;;1.80;61.90;;;;;;5069413;28;20052;-76
2023/02/06 07:27:57;;;;;;;24.30;11.00;;;1.90;63.10;;;;;;5069315;28;20150;-73
2023/02/06 07:30:23;;;;;;;18.15;9.40;;;2.10;64.30;;;;;;5069517;28;20039;-77
2023/02/06 07:32:49;;;;;;;;;;;2.20;63.80;;;;;;5071245;28;20040;-77
2023/02/06 07:35:14;;;;;;;22.05;11.98;;;2.40;62.70;;;;;;5069434;28;19923;-74
2023/02/06 07:37:40;;;;;;;;;;;2.50;61.70;;;;;;5070845;28;20055;-73
2023/02/06 07:40:06;;;;;;;26.17;12.35;;;2.70;61.10;;;;;;5069100;28;19908;-74
2023/02/06 07:42:32;;;;;;;22.33;11.23;;;2.70;60.90;;;;;;5070750;28;20044;-74
2023/02/06 07:44:58;;;;;;;;;;;2.60;59.30;;;;;;5069462;28;20071;-73
2023/02/06 07:47:24;;;;;;;19.92;10.02;;;2.80;58.90;;;;;;5068991;28;19942;-73
2023/02/06 07:49:49;;;;;;;;;;;3.00;58.90;;;;;;5069246;28;20040;-74
2023/02/06 07:52:15;;;;;;;51.35;27.23;;;3.00;57.90;;;;;;5068937;28;20290;-73
2023/02/06 07:54:41;;;;;;;18.42;10.25;;;2.80;57.20;;;;;;5068812;28;20051;-75
2023/02/06 07:57:06;;;;;;;;;;;2.70;57.80;;;;;;5070674;28;20419;-73
2023/02/06 07:59:32;;;;;;;43.20;21.25;;;2.30;55.90;;;;;;5070459;28;19908;-77
2023/02/06 08:01:59;;;;;;;;;;;2.10;58.40;;;;;;5069389;28;20439;-75
2023/02/06 08:04:26;;;;;;;13.02;6.63;;;2.10;57.40;;;;;;5070183;28;20018;-78
2023/02/06 08:06:52;;;;;;;12.88;6.28;;;2.10;57.40;;;;;;5070120;28;20037;-77
2023/02/06 08:09:18;;;;;;;;;;;2.00;58.10;;;;;;5069340;28;20354;-77
2023/02/06 08:11:44;;;;;;;14.52;6.68;;;2.10;57.70;;;;;;5070117;28;19908;-78
2023/02/06 08:14:10;;;;;;;20.02;9.00;;;2.00;57.60;;;;;;5070064;28;20556;-77
2023/02/06 08:16:35;;;;;;;;;;;1.90;58.70;;;;;;5070440;28;20089;-77
2023/02/06 08:19:01;;;;;;;14.50;5.70;;;2.00;57.90;;;;;;5070281;28;20359;-78
2023/02/06 08:21:26;;;;;;;;;;;2.20;57.60;;;;;;5069303;28;20025;-78
2023/02/06 08:23:54;;;;;;;13.55;6.00;;;2.20;58.00;;;;;;5069978;28;20011;-77
2023/02/06 08:26:20;;;;;;;13.27;6.03;;;2.20;56.70;;;;;;5069944;28;20423;-78
2023/02/06 08:28:48;;;;;;;14.07;6.97;;;2.10;56.50;;;;;;5068746;28;20032;-75
2023/02/06 08:31:17;;;;;;;13.48;6.43;;;2.20;57.30;;;;;;5069854;28;20115;-72
2023/02/06 08:33:43;;;;;;;26.40;12.95;;;2.30;56.60;;;;;;5069865;28;20051;-75
2023/02/06 08:36:10;;;;;;;20.27;9.80;;;2.60;56.60;;;;;;5068551;28;20086;-76
2023/02/06 08:38:36;;;;;;;15.10;7.32;;;2.70;56.10;;;;;;5069811;28;20106;-78
2023/02/06 08:41:02;;;;;;;12.32;6.28;;;2.80;55.80;;;;;;5069477;28;20031;-75
2023/02/06 08:43:28;;;;;;;12.25;5.95;;;2.80;55.30;;;;;;5068446;28;20503;-73
2023/02/06 08:45:58;;;;;;;;;;;3.00;54.40;;;;;;5070028;28;20024;-75
2023/02/06 08:48:25;;;;;;;10.18;5.30;;;3.10;54.30;;;;;;5069663;28;19908;-74
2023/02/06 08:51:00;;;;;;;13.63;6.43;;;3.10;54.00;;;;;;5069709;28;20063;-74
2023/02/06 08:53:25;;;;;;;11.30;6.05;;;3.50;54.90;;;;;;5068498;28;20079;-77
2023/02/06 08:55:56;;;;;;;;;;;3.90;53.40;;;;;;5069983;28;20060;-76
2023/02/06 08:58:22;;;;;;;13.45;6.90;;;4.00;53.00;;;;;;5069955;28;20000;-76
2023/02/06 09:00:47;;;;;;;;;;;4.10;52.10;;;;;;5069048;28;20123;-77
2023/02/06 09:03:13;;;;;;;13.98;7.50;;;4.40;51.80;;;;;;5073108;28;19912;-77
2023/02/06 09:05:38;;;;;;;;;;;4.60;50.60;;;;;;5073729;28;20025;-75
2023/02/06 09:08:04;;;;;;;13.02;6.18;;;4.50;49.70;;;;;;5073508;28;19909;-77
2023/02/06 09:10:30;;;;;;;;;;;4.60;49.90;;;;;;5072758;28;20028;-76
2023/02/06 09:12:56;;;;;;;8.32;4.13;;;4.90;50.10;;;;;;5073572;28;20585;-76
2023/02/06 09:15:22;;;;;;;8.73;4.72;;;5.30;49.50;;;;;;5073317;28;20123;-76
2023/02/06 09:17:47;;;;;;;;;;;5.50;48.80;;;;;;5073705;28;20097;-76
2023/02/06 09:20:13;;;;;;;13.05;7.03;;;5.80;49.10;;;;;;5073350;28;19908;-77
2023/02/06 09:22:39;;;;;;;10.85;5.55;;;6.20;48.50;;;;;;5072210;28;20107;-76
2023/02/06 09:25:04;;;;;;;;;;;6.20;47.20;;;;;;5073391;28;20555;-76
2023/02/06 09:27:30;;;;;;;8.07;4.55;;;5.80;46.90;;;;;;5071972;28;19954;-77
2023/02/06 09:29:55;;;;;;;;;;;5.80;47.40;;;;;;5073694;28;20404;-76
2023/02/06 09:32:21;;;;;;;8.45;3.83;;;5.90;47.70;;;;;;5073009;28;20376;-77
2023/02/06 09:34:47;;;;;;;18.77;9.20;;;6.00;47.10;;;;;;5071682;28;20040;-76
2023/02/06 09:37:12;;;;;;;;;;;6.30;47.10;;;;;;5073541;28;20086;-77
2023/02/06 09:39:38;;;;;;;17.60;6.72;;;6.10;46.90;;;;;;5071512;28;19915;-77
2023/02/06 09:42:06;;;;;;;;;;;6.30;47.00;;;;;;5073514;28;20040;-77
2023/02/06 09:44:35;;;;;;;14.52;7.32;;;6.10;47.00;;;;;;5072666;28;19908;-77
2023/02/06 09:47:16;;;;;;;12.52;6.75;;;5.90;47.60;;;;;;5072552;28;20057;-77
2023/02/06 09:49:44;;;;;;;9.43;4.97;;;5.60;48.00;;;;;;5072616;28;20389;-76
2023/02/06 09:52:51;;;;;;;8.60;4.25;;;5.30;48.70;;;;;;5072674;28;20021;-76
2023/02/06 09:55:31;;;;;;;8.10;4.68;;;4.90;49.10;;;;;;5072393;28;20050;-77
2023/02/06 09:58:15;;;;;;;11.80;6.70;;;4.60;49.80;;;;;;5072726;28;20047;-77
2023/02/06 10:00:49;;;;;;;11.88;7.00;;;4.40;50.50;;;;;;5071393;28;20106;-77
2023/02/06 10:03:21;;;;;;;11.65;6.45;;;4.20;50.50;;;;;;5071172;28;20025;-76
2023/02/06 10:06:03;;;;;;;16.33;8.40;;;3.50;51.70;;;;;;5072424;28;20107;-76
2023/02/06 10:08:40;;;;;;;136.43;60.05;;;3.40;52.20;;;;;;5070864;28;20397;-76
2023/02/06 10:12:00;;;;;;;175.85;97.47;;;3.10;52.50;;;;;;5072450;28;20795;-76
2023/02/06 10:14:41;;;;;;;40.22;23.38;;;2.80;53.20;;;;;;5054816;28;20048;-77
2023/02/06 10:17:26;;;;;;;27.00;16.30;;;2.70;54.10;;;;;;5071128;28;20124;-77
2023/02/06 10:20:01;;;;;;;16.33;8.30;;;2.60;54.30;;;;;;5072273;28;20032;-77
2023/02/06 10:22:33;;;;;;;16.17;8.43;;;2.70;54.50;;;;;;5070903;28;20012;-76
2023/02/06 10:25:17;;;;;;;13.05;7.47;;;2.60;54.60;;;;;;5072043;28;20032;-77
2023/02/06 10:27:44;;;;;;;9.95;5.78;;;2.60;54.80;;;;;;5070992;28;20024;-78
2023/02/06 10:30:21;;;;;;;8.32;4.25;;;2.40;54.20;;;;;;5070696;28;20086;-76
2023/02/06 10:33:22;;;;;;;9.70;5.47;;;2.30;54.70;;;;;;5070756;28;20031;-76
2023/02/06 10:36:10;;;;;;;9.98;4.90;;;2.40;55.30;;;;;;5071796;28;20040;-78
2023/02/06 10:39:24;;;;;;;8.20;4.10;;;2.30;55.90;;;;;;5071874;28;20090;-77
2023/02/06 10:41:53;;;;;;;14.23;6.57;;;2.30;56.60;;;;;;5053828;28;20501;-77
2023/02/06 10:44:57;;;;;;;9.93;5.40;;;2.20;57.00;;;;;;5070502;28;20060;-77
2023/02/06 10:47:29;;;;;;;14.55;4.78;;;2.20;57.10;;;;;;5071849;28;20035;-79
2023/02/06 10:50:17;;;;;;;10.02;5.18;;;2.20;56.80;;;;;;5071882;28;20555;-76
2023/02/06 10:52:44;;;;;;;9.50;4.15;;;2.20;57.00;;;;;;5070326;28;20052;-77
2023/02/06 10:55:23;;;;;;;9.75;5.30;;;2.00;56.30;;;;;;5070123;28;20071;-77
2023/02/06 10:58:01;;;;;;;7.75;3.45;;;2.00;57.10;;;;;;5071533;28;20145;-77
2023/02/06 11:00:27;;;;;;;11.95;4.65;;;1.80;56.30;;;;;;5071460;28;20021;-77
2023/02/06 11:02:55;;;;;;;;;;;1.80;57.20;;;;;;5071877;28;20020;-76
2023/02/06 11:05:21;;;;;;;12.02;4.63;;;1.70;57.20;;;;;;5071345;28;20303;-77
2023/02/06 11:07:54;;;;;;;;;;;1.70;57.20;;;;;;5071780;28;20029;-76
2023/02/06 11:10:22;;;;;;;6.88;3.10;;;1.80;57.60;;;;;;5071490;28;19908;-77
2023/02/06 11:12:57;;;;;;;7.40;3.85;;;1.70;57.80;;;;;;5069849;28;20516;-77
2023/02/06 11:15:35;;;;;;;7.97;3.60;;;1.70;57.20;;;;;;5071297;28;20047;-77
2023/02/06 11:18:03;;;;;;;8.52;3.08;;;1.70;56.40;;;;;;5071413;28;20462;-76
2023/02/06 11:20:32;;;;;;;8.45;3.92;;;1.60;55.90;;;;;;5070858;28;20094;-75
2023/02/06 11:23:22;;;;;;;8.18;4.07;;;1.50;55.90;;;;;;5070887;28;20389;-76
2023/02/06 11:26:15;;;;;;;7.45;4.35;;;1.40;56.90;;;;;;5070071;28;20037;-76
2023/02/06 11:28:51;;;;;;;10.88;4.82;;;1.50;57.60;;;;;;5061211;28;20447;-77
2023/02/06 11:31:19;;;;;;;37.08;22.95;;;1.60;58.20;;;;;;5069593;28;20028;-77
2023/02/06 11:33:44;;;;;;;16.35;9.93;;;1.60;58.50;;;;;;5069888;28;20027;-76
2023/02/06 11:36:25;;;;;;;;;;;1.60;58.30;;;;;;5071349;28;20029;-77
2023/02/06 11:39:05;;;;;;;8.70;4.68;;;1.70;57.80;;;;;;5070585;28;20313;-76
2023/02/06 11:41:32;;;;;;;68.25;35.47;;;1.60;56.50;;;;;;5070604;28;20063;-77
2023/02/06 11:44:05;;;;;;;39.83;18.52;;;1.70;57.10;;;;;;5070501;28;20021;-76
2023/02/06 11:46:37;;;;;;;8.43;4.10;;;1.70;57.10;;;;;;5070431;28;20154;-76
2023/02/06 11:49:19;;;;;;;7.35;3.67;;;1.60;56.40;;;;;;5069737;28;20029;-78
2023/02/06 11:51:52;;;;;;;10.10;4.75;;;1.50;55.70;;;;;;5070391;28;20111;-76
2023/02/06 11:54:30;;;;;;;9.25;5.45;;;1.30;56.70;;;;;;5069985;28;20049;-77
2023/02/06 11:57:02;;;;;;;9.20;4.68;;;1.40;57.30;;;;;;5070628;28;20028;-77
2023/02/06 11:59:28;;;;;;;11.30;5.80;;;1.30;58.10;;;;;;5070461;28;20017;-78
2023/02/06 12:01:56;;;;;;;9.55;4.13;;;1.30;57.10;;;;;;5070342;28;20528;-77
2023/02/06 12:04:37;;;;;;;11.98;6.28;;;1.30;57.40;;;;;;5069080;28;20439;-77
2023/02/06 12:07:06;;;;;;;9.02;5.22;;;1.20;57.40;;;;;;5069208;28;20039;-76
2023/02/06 12:09:31;;;;;;;9.60;5.13;;;1.10;56.90;;;;;;5068928;28;20024;-77
2023/02/06 12:12:05;;;;;;;;;;;0.90;57.30;;;;;;5070530;28;20031;-76
2023/02/06 12:14:41;;;;;;;10.15;5.68;;;0.90;57.70;;;;;;5068759;28;19952;-76
2023/02/06 12:17:22;;;;;;;8.40;4.38;;;0.90;58.30;;;;;;5070216;28;20397;-78
2023/02/06 12:20:10;;;;;;;10.10;5.18;;;1.00;57.80;;;;;;5069990;28;20029;-78
2023/02/06 12:22:47;;;;;;;12.68;6.43;;;1.10;58.00;;;;;;5068004;28;20044;-78
2023/02/06 12:25:33;;;;;;;12.15;7.35;;;1.00;58.40;;;;;;5068732;28;20029;-79
2023/02/06 12:28:05;;;;;;;10.80;4.57;;;1.00;58.90;;;;;;5070085;28;20121;-78
2023/02/06 12:30:42;;;;;;;18.38;7.53;;;1.20;58.20;;;;;;5069816;28;20055;-77
2023/02/06 12:33:16;;;;;;;26.58;10.98;;;1.20;57.90;;;;;;5069751;28;20496;-76
2023/02/06 12:35:47;;;;;;;15.15;7.38;;;1.20;58.20;;;;;;5069807;28;20059;-75
2023/02/06 12:38:38;;;;;;;13.02;6.28;;;1.30;57.40;;;;;;5069902;28;20052;-78
2023/02/06 12:42:04;;;;;;;29.67;17.35;;;1.20;57.30;;;;;;5063600;28;20037;-77
2023/02/06 12:44:45;;;;;;;24.30;12.73;;;1.00;57.90;;;;;;4987971;28;20518;-77
2023/02/06 12:47:16;;;;;;;13.15;7.30;;;1.00;57.90;;;;;;4988078;28;20030;-76
2023/02/06 12:50:27;;;;;;;12.55;6.43;;;1.00;58.10;;;;;;5037129;28;20029;-76
2023/02/06 12:53:10;;;;;;;22.80;13.90;;;1.00;58.50;;;;;;5067497;28;20045;-77
2023/02/06 12:55:46;;;;;;;13.75;6.60;;;1.10;59.20;;;;;;5069700;28;20032;-76
2023/02/06 12:58:42;;;;;;;12.05;5.53;;;1.20;59.10;;;;;;5069654;28;20499;-77
2023/02/06 13:01:20;;;;;;;8.73;4.43;;;1.30;58.50;;;;;;5069582;28;20027;-77
2023/02/06 13:03:58;;;;;;;10.40;5.35;;;1.20;57.60;;;;;;5069772;28;20039;-77
2023/02/06 13:06:28;;;;;;;10.25;5.40;;;1.20;57.60;;;;;;5069406;28;20036;-77